Terminal Aerodrome Forecast
Issued by NWS

Home | Current Version | Previous Version | Graphics & Text | Print | Product List | Glossary On
Versions: 1 2 3 4 5 6 7 8 9 10 11 12
000
FTUS45 KGGW 280520
TAFGDV
TAF
KGDV 280520Z 2806/2906 35007KT P6SM VCSH OVC070
     FM281800 07010KT P6SM BKN070
     FM290300 10006KT P6SM BKN070
      AMD LTD TO CLD VIS AND WIND=

USA.gov is the U.S. government's official web portal to all federal, state and local government web resources and services.